Eglin, Florida
Current Conditions -  °F | °C
As of 11:20 AM on Saturday 25 Oct 2014 (Local Time) from KVPS Reporting Station
Clear Clear  
Wind Chill: 73°   Ceiling: Unl
Heat Index: 73°   Visibility: 10mi
Dew Point: 43°   Wind: 10mph
Humidity: 33%   Direction: 30°NNE
Pressure: 30.09"   Gusts: 20mph
Location:  30.5697°N, 86.6042°W
Report Text: KVPS 251620Z 03009G17KT 10SM CLR 23/06 A3009 RMK AO2A $
Loading
Personal Weather Stations






























Interactive Weather Map
Tropical Storm Tracking
New forecast layout! Learn more

10-Day Weather Forecast

Advertisements
Track Severe Weather on mobile